createdAt,value
2023-02-11T00:01:34.092Z,14.50
2023-02-11T00:03:05.866Z,14.73
2023-02-11T00:04:37.582Z,15.40
2023-02-11T00:06:11.503Z,15.75
2023-02-11T00:07:43.574Z,14.57
2023-02-11T00:09:15.489Z,16.25
2023-02-11T00:10:52.269Z,16.48
2023-02-11T00:12:24.114Z,16.33
2023-02-11T00:14:00.551Z,15.93
2023-02-11T00:15:32.267Z,15.10
2023-02-11T00:17:04.106Z,15.10
2023-02-11T00:18:36.496Z,14.45
2023-02-11T00:20:08.753Z,15.15
2023-02-11T00:21:40.584Z,14.90
2023-02-11T00:23:13.025Z,15.18
2023-02-11T00:24:45.127Z,15.23
2023-02-11T00:26:28.627Z,16.13
2023-02-11T00:28:00.409Z,14.00
2023-02-11T00:29:32.125Z,15.10
2023-02-11T00:31:03.975Z,15.00
2023-02-11T00:32:35.796Z,14.15
2023-02-11T00:34:07.662Z,15.30
2023-02-11T00:35:39.365Z,14.85
2023-02-11T00:37:13.711Z,16.23
2023-02-11T00:38:50.031Z,15.48
2023-02-11T00:40:22.300Z,14.05
2023-02-11T00:41:54.002Z,14.75
2023-02-11T00:43:25.767Z,13.82
2023-02-11T00:44:57.494Z,14.52
2023-02-11T00:46:29.720Z,14.98
2023-02-11T00:48:01.586Z,14.93
2023-02-11T00:49:33.378Z,14.68
2023-02-11T00:51:05.562Z,13.90
2023-02-11T00:52:37.370Z,15.32
2023-02-11T00:54:09.121Z,14.93
2023-02-11T00:55:40.850Z,14.90
2023-02-11T00:57:12.727Z,14.93
2023-02-11T00:58:44.516Z,14.23
2023-02-11T01:00:16.531Z,15.65
2023-02-11T01:01:49.863Z,14.38
2023-02-11T01:03:21.648Z,13.75
2023-02-11T01:04:53.506Z,15.55
2023-02-11T01:06:25.586Z,15.52
2023-02-11T01:07:57.810Z,15.15
2023-02-11T01:09:29.565Z,14.32
2023-02-11T01:11:04.341Z,14.65
2023-02-11T01:12:36.697Z,14.98
2023-02-11T01:14:09.238Z,15.57
2023-02-11T01:15:41.026Z,15.13
2023-02-11T01:17:12.772Z,14.52
2023-02-11T01:18:45.072Z,14.00
2023-02-11T01:20:23.392Z,14.07
2023-02-11T01:21:55.141Z,14.15
2023-02-11T01:23:27.414Z,14.20
2023-02-11T01:24:59.140Z,15.07
2023-02-11T01:26:30.952Z,14.00
2023-02-11T01:28:03.484Z,14.55
2023-02-11T01:29:35.996Z,14.93
2023-02-11T01:31:07.826Z,15.43
2023-02-11T01:32:39.790Z,15.38
2023-02-11T01:34:11.535Z,15.32
2023-02-11T01:35:43.989Z,14.25
2023-02-11T01:37:16.207Z,13.82
2023-02-11T01:38:49.981Z,14.75
2023-02-11T01:40:23.793Z,14.50
2023-02-11T01:41:55.570Z,14.32
2023-02-11T01:43:31.125Z,14.77
2023-02-11T01:45:50.633Z,14.55
2023-02-11T01:47:23.711Z,14.15
2023-02-11T01:49:03.186Z,14.02
2023-02-11T01:50:35.726Z,14.95
2023-02-11T01:52:14.835Z,14.10
2023-02-11T01:54:06.492Z,14.75
2023-02-11T01:55:57.110Z,14.10
2023-02-11T01:57:32.397Z,14.82
2023-02-11T01:59:11.713Z,14.80
2023-02-11T02:00:43.988Z,16.13
2023-02-11T02:02:19.242Z,16.30
2023-02-11T02:03:54.390Z,15.77
2023-02-11T02:05:43.654Z,14.98
2023-02-11T02:07:26.361Z,14.75
2023-02-11T02:09:09.419Z,15.15
2023-02-11T02:10:45.900Z,16.42
2023-02-11T02:12:17.888Z,15.95
2023-02-11T02:13:49.852Z,15.35
2023-02-11T02:15:23.980Z,15.55
2023-02-11T02:16:55.769Z,16.65
2023-02-11T02:18:48.822Z,15.27
2023-02-11T02:20:32.955Z,16.10
2023-02-11T02:22:42.607Z,16.05
2023-02-11T02:24:17.162Z,16.35
2023-02-11T02:25:54.984Z,15.25
2023-02-11T02:27:41.436Z,16.10
2023-02-11T02:29:36.366Z,15.15
2023-02-11T02:31:26.765Z,15.45
2023-02-11T02:33:22.423Z,14.85
2023-02-11T02:35:07.112Z,14.30
2023-02-11T02:36:48.456Z,14.38
2023-02-11T02:39:51.742Z,14.20
2023-02-11T02:41:29.837Z,13.93
2023-02-11T02:43:02.969Z,13.38
2023-02-11T02:44:34.712Z,16.23
2023-02-11T02:46:25.856Z,15.02
2023-02-11T02:47:57.616Z,15.45
2023-02-11T02:49:29.532Z,15.80
2023-02-11T02:51:38.126Z,16.00
2023-02-11T02:53:28.606Z,15.05
2023-02-11T02:55:41.651Z,14.55
2023-02-11T02:57:47.652Z,14.27
2023-02-11T02:59:45.679Z,14.77
2023-02-11T03:01:50.113Z,15.23
2023-02-11T03:03:49.409Z,15.45
2023-02-11T03:05:48.507Z,14.73
2023-02-11T03:07:41.812Z,14.30
2023-02-11T03:09:22.598Z,14.23
2023-02-11T03:10:56.499Z,13.95
2023-02-11T03:12:32.163Z,13.48
2023-02-11T03:14:07.965Z,14.80
2023-02-11T03:15:44.859Z,15.02
2023-02-11T03:17:16.923Z,14.52
2023-02-11T03:18:59.351Z,15.23
2023-02-11T03:20:35.732Z,15.05
2023-02-11T03:22:14.601Z,14.52
2023-02-11T03:23:59.796Z,15.23
2023-02-11T03:25:37.131Z,14.10
2023-02-11T03:27:25.831Z,15.05
2023-02-11T03:29:35.558Z,14.80
2023-02-11T03:31:37.087Z,15.25
2023-02-11T03:33:27.282Z,17.45
2023-02-11T03:35:03.189Z,15.45
2023-02-11T03:36:46.118Z,15.07
2023-02-11T03:38:25.282Z,15.95
2023-02-11T03:40:03.421Z,14.00
2023-02-11T03:41:36.627Z,15.60
2023-02-11T03:43:33.086Z,15.10
2023-02-11T03:45:09.460Z,17.15
2023-02-11T03:46:47.191Z,17.42
2023-02-11T03:53:00.603Z,15.43
2023-02-11T03:54:33.066Z,16.38
2023-02-11T03:56:09.182Z,15.48
2023-02-11T03:57:41.075Z,16.10
2023-02-11T03:59:12.830Z,15.95
2023-02-11T04:00:44.915Z,15.43
2023-02-11T04:02:16.693Z,15.65
2023-02-11T04:03:48.438Z,14.52
2023-02-11T04:05:20.251Z,15.45
2023-02-11T04:06:51.966Z,16.55
2023-02-11T04:08:23.755Z,16.58
2023-02-11T04:09:55.522Z,16.27
2023-02-11T04:11:27.226Z,15.88
2023-02-11T04:12:59.015Z,17.10
2023-02-11T04:14:30.760Z,15.90
2023-02-11T04:16:02.523Z,14.20
2023-02-11T04:17:34.280Z,14.93
2023-02-11T04:19:05.984Z,16.55
2023-02-11T04:20:37.723Z,16.20
2023-02-11T04:22:09.483Z,16.52
2023-02-11T04:23:41.238Z,17.20
2023-02-11T04:25:12.979Z,16.23
2023-02-11T04:26:44.697Z,16.42
2023-02-11T04:28:16.479Z,16.60
2023-02-11T04:29:48.376Z,16.05
2023-02-11T04:31:20.287Z,16.42
2023-02-11T04:32:52.265Z,16.00
2023-02-11T04:34:24.616Z,16.35
2023-02-11T04:35:56.597Z,16.23
2023-02-11T04:37:28.431Z,15.95
2023-02-11T04:39:00.215Z,17.55
2023-02-11T04:40:31.973Z,17.17
2023-02-11T04:42:03.737Z,16.30
2023-02-11T04:43:35.439Z,17.38
2023-02-11T04:45:07.978Z,16.20
2023-02-11T04:46:39.911Z,16.85
2023-02-11T04:48:11.595Z,16.38
2023-02-11T04:49:43.525Z,17.10
2023-02-11T04:51:15.267Z,17.15
2023-02-11T04:52:46.997Z,17.38
2023-02-11T04:54:18.769Z,16.23
2023-02-11T04:55:51.384Z,16.00
2023-02-11T04:57:23.392Z,15.40
2023-02-11T04:58:55.335Z,14.65
2023-02-11T05:00:27.055Z,15.18
2023-02-11T05:01:58.838Z,15.20
2023-02-11T05:03:30.530Z,15.68
2023-02-11T05:05:02.326Z,16.52
2023-02-11T05:06:34.189Z,16.60
2023-02-11T05:08:06.875Z,16.20
2023-02-11T05:09:38.646Z,17.27
2023-02-11T05:11:17.777Z,16.90
2023-02-11T05:12:49.778Z,17.30
2023-02-11T05:14:21.489Z,16.15
2023-02-11T05:15:54.631Z,17.98
2023-02-11T05:17:26.425Z,17.05
2023-02-11T05:18:58.563Z,16.88
2023-02-11T05:20:30.419Z,16.50
2023-02-11T05:22:03.646Z,16.77
2023-02-11T05:23:36.706Z,17.17
2023-02-11T05:25:08.573Z,16.17
2023-02-11T05:26:40.335Z,16.95
2023-02-11T05:28:12.352Z,16.55
2023-02-11T05:29:44.055Z,15.95
2023-02-11T05:31:16.930Z,15.60
2023-02-11T05:32:48.659Z,15.88
2023-02-11T05:34:20.344Z,16.48
2023-02-11T05:35:52.360Z,17.35
2023-02-11T05:37:24.334Z,15.75
2023-02-11T05:38:56.068Z,15.82
2023-02-11T05:40:27.775Z,17.05
2023-02-11T05:41:59.485Z,17.00
2023-02-11T05:43:31.524Z,17.02
2023-02-11T05:45:03.526Z,17.42
2023-02-11T05:46:35.548Z,17.30
2023-02-11T05:48:07.300Z,17.38
2023-02-11T05:49:39.182Z,16.55
2023-02-11T05:51:10.920Z,16.25
2023-02-11T05:52:42.716Z,17.15
2023-02-11T05:54:14.507Z,17.52
2023-02-11T05:55:46.311Z,17.40
2023-02-11T05:57:19.131Z,16.73
2023-02-11T05:58:50.916Z,16.00
2023-02-11T06:00:22.932Z,17.33
2023-02-11T06:01:54.702Z,16.35
2023-02-11T06:03:26.421Z,16.83
2023-02-11T06:04:58.163Z,18.48
2023-02-11T06:06:30.055Z,17.38
2023-02-11T06:08:01.739Z,18.30
2023-02-11T06:09:33.544Z,18.63
2023-02-11T06:11:05.257Z,18.92
2023-02-11T06:12:38.242Z,18.75
2023-02-11T06:14:11.063Z,18.15
2023-02-11T06:15:42.816Z,17.90
2023-02-11T06:17:15.734Z,18.13
2023-02-11T06:18:47.653Z,18.13
2023-02-11T06:20:19.978Z,17.40
2023-02-11T06:21:51.810Z,17.23
2023-02-11T06:23:23.584Z,18.45
2023-02-11T06:25:01.645Z,17.33
2023-02-11T06:26:35.364Z,17.45
2023-02-11T06:28:07.123Z,17.83
2023-02-11T06:29:39.115Z,18.05
2023-02-11T06:31:12.034Z,17.85
2023-02-11T06:32:45.661Z,18.52
2023-02-11T06:34:17.672Z,16.77
2023-02-11T06:35:49.680Z,17.48
2023-02-11T06:37:21.842Z,16.02
2023-02-11T06:38:53.690Z,17.90
2023-02-11T06:40:25.402Z,17.30
2023-02-11T06:41:57.112Z,18.55
2023-02-11T06:43:28.902Z,16.85
2023-02-11T06:45:00.623Z,18.20
2023-02-11T06:46:32.439Z,17.25
2023-02-11T06:48:04.204Z,17.92
2023-02-11T06:49:35.902Z,17.35
2023-02-11T06:51:11.004Z,17.75
2023-02-11T06:52:42.798Z,17.73
2023-02-11T06:54:15.004Z,17.83
2023-02-11T06:55:46.742Z,17.85
2023-02-11T06:57:18.620Z,17.08
2023-02-11T06:58:55.534Z,17.70
2023-02-11T07:00:29.158Z,18.63
2023-02-11T07:02:00.953Z,17.90
2023-02-11T07:03:36.306Z,17.95
2023-02-11T07:05:08.699Z,18.27
2023-02-11T07:06:41.003Z,16.60
2023-02-11T07:08:12.762Z,17.50
2023-02-11T07:09:44.594Z,18.13
2023-02-11T07:11:20.937Z,18.05
2023-02-11T07:12:52.627Z,18.00
2023-02-11T07:14:24.522Z,18.27
2023-02-11T07:15:56.273Z,18.10
2023-02-11T07:17:28.052Z,18.10
2023-02-11T07:18:59.867Z,18.10
2023-02-11T07:20:31.599Z,18.15
2023-02-11T07:22:03.380Z,18.45
2023-02-11T07:23:36.244Z,18.17
2023-02-11T07:25:08.140Z,18.40
2023-02-11T07:26:40.273Z,17.00
2023-02-11T07:28:12.017Z,18.00
2023-02-11T07:29:43.773Z,18.83
2023-02-11T07:31:19.282Z,19.42
2023-02-11T07:32:51.195Z,18.70
2023-02-11T07:34:23.000Z,17.98
2023-02-11T07:35:54.764Z,18.52
2023-02-11T07:37:26.624Z,19.60
2023-02-11T07:38:58.568Z,19.33
2023-02-11T07:40:31.765Z,20.35
2023-02-11T07:42:04.285Z,18.60
2023-02-11T07:43:37.581Z,18.50
2023-02-11T07:45:09.591Z,19.13
2023-02-11T07:46:45.352Z,19.48
2023-02-11T07:48:17.120Z,18.38
2023-02-11T07:49:48.850Z,18.48
2023-02-11T07:51:26.354Z,19.00
2023-02-11T07:52:58.063Z,19.60
2023-02-11T07:54:29.813Z,20.48
2023-02-11T07:56:03.886Z,18.83
2023-02-11T07:57:36.281Z,19.88
2023-02-11T07:59:08.083Z,19.23
2023-02-11T08:00:39.843Z,18.80
2023-02-11T08:02:11.717Z,20.00
2023-02-11T08:03:43.620Z,17.70
2023-02-11T08:05:15.364Z,19.20
2023-02-11T08:06:47.047Z,18.40
2023-02-11T08:08:18.776Z,18.63
2023-02-11T08:09:50.528Z,18.40
2023-02-11T08:11:26.706Z,17.77
2023-02-11T08:12:58.419Z,18.27
2023-02-11T08:14:30.153Z,19.52
2023-02-11T08:16:02.486Z,18.85
2023-02-11T08:17:36.190Z,18.58
2023-02-11T08:19:11.913Z,18.08
2023-02-11T08:20:43.653Z,17.02
2023-02-11T08:22:15.350Z,18.30
2023-02-11T08:23:47.298Z,18.58
2023-02-11T08:25:19.060Z,18.45
2023-02-11T08:26:50.758Z,18.40
2023-02-11T08:28:22.581Z,17.02
2023-02-11T08:29:54.800Z,19.27
2023-02-11T08:31:30.074Z,17.55
2023-02-11T08:33:02.403Z,17.23
2023-02-11T08:34:34.366Z,17.85
2023-02-11T08:36:11.623Z,20.05
2023-02-11T08:37:43.449Z,19.50
2023-02-11T08:39:22.931Z,18.52
2023-02-11T08:40:54.685Z,18.67
2023-02-11T08:42:26.418Z,20.00
2023-02-11T08:43:58.571Z,18.42
2023-02-11T08:45:30.302Z,17.98
2023-02-11T08:47:02.012Z,18.40
2023-02-11T08:48:33.932Z,18.13
2023-02-11T08:50:06.142Z,18.48
2023-02-11T08:51:38.007Z,17.35
2023-02-11T08:53:09.735Z,19.10
2023-02-11T08:54:41.451Z,20.13
2023-02-11T08:56:14.509Z,18.77
2023-02-11T08:57:46.214Z,18.40
2023-02-11T08:59:18.019Z,18.60
2023-02-11T09:00:50.656Z,19.45
2023-02-11T09:02:22.657Z,19.80
2023-02-11T09:03:54.787Z,19.52
2023-02-11T09:05:27.723Z,20.55
2023-02-11T09:06:59.434Z,20.08
2023-02-11T09:08:36.184Z,18.58
2023-02-11T09:10:08.231Z,19.20
2023-02-11T09:11:41.508Z,19.58
2023-02-11T09:13:13.663Z,21.42
2023-02-11T09:14:45.440Z,20.13
2023-02-11T09:16:28.974Z,18.17
2023-02-11T09:18:01.223Z,18.63
2023-02-11T09:19:33.018Z,19.58
2023-02-11T09:21:07.377Z,20.27
2023-02-11T09:22:39.110Z,19.45
2023-02-11T09:24:11.728Z,19.95
2023-02-11T09:25:43.493Z,19.25
2023-02-11T09:27:15.326Z,18.80
2023-02-11T09:28:47.716Z,19.85
2023-02-11T09:30:19.700Z,18.92
2023-02-11T09:31:51.616Z,20.33
2023-02-11T09:33:23.450Z,19.65
2023-02-11T09:34:55.289Z,19.23
2023-02-11T09:36:30.159Z,17.95
2023-02-11T09:38:01.903Z,19.17
2023-02-11T09:39:33.636Z,17.58
2023-02-11T09:41:07.804Z,18.77
2023-02-11T09:43:02.334Z,20.05
2023-02-11T09:44:38.512Z,20.67
2023-02-11T09:46:14.806Z,20.38
2023-02-11T09:47:52.539Z,19.15
2023-02-11T09:49:40.291Z,19.63
2023-02-11T09:51:33.340Z,18.88
2023-02-11T09:53:15.023Z,18.80
2023-02-11T09:55:02.196Z,20.20
2023-02-11T09:56:34.750Z,19.88
2023-02-11T09:58:21.336Z,18.70
2023-02-11T09:59:53.063Z,18.52
2023-02-11T10:01:54.827Z,19.08
2023-02-11T10:05:26.264Z,15.88
2023-02-11T10:07:12.536Z,17.90
2023-02-11T10:09:03.412Z,17.20
2023-02-11T10:10:47.660Z,18.33
2023-02-11T10:12:44.023Z,18.23
2023-02-11T10:14:15.684Z,18.38
2023-02-11T10:15:57.221Z,20.02
2023-02-11T10:17:58.231Z,19.98
2023-02-11T10:20:03.393Z,17.42
2023-02-11T10:22:07.149Z,17.25
2023-02-11T10:23:42.659Z,18.17
2023-02-11T10:25:21.958Z,19.50
2023-02-11T10:26:53.708Z,18.92
2023-02-11T10:28:34.177Z,20.38
2023-02-11T10:30:26.925Z,20.02
2023-02-11T10:32:00.772Z,18.55
2023-02-11T10:34:00.526Z,19.35
2023-02-11T10:35:32.794Z,19.20
2023-02-11T10:37:04.571Z,20.92
2023-02-11T10:38:37.118Z,20.75
2023-02-11T10:40:20.646Z,21.40
2023-02-11T10:41:59.368Z,21.77
2023-02-11T10:43:32.962Z,19.50
2023-02-11T10:45:07.449Z,22.25
2023-02-11T10:46:40.419Z,21.35
2023-02-11T10:48:51.736Z,20.85
2023-02-11T10:50:27.061Z,16.92
2023-02-11T10:52:18.306Z,18.08
2023-02-11T10:54:05.135Z,19.38
2023-02-11T10:55:37.204Z,19.15
2023-02-11T10:57:20.091Z,19.17
2023-02-11T10:59:25.465Z,19.63
2023-02-11T11:00:59.893Z,17.92
2023-02-11T11:02:35.628Z,19.65
2023-02-11T11:04:26.152Z,20.73
2023-02-11T11:06:01.373Z,20.25
2023-02-11T11:07:34.039Z,21.08
2023-02-11T11:09:05.808Z,19.25
2023-02-11T11:10:44.018Z,20.77
2023-02-11T11:12:41.846Z,20.48
2023-02-11T11:14:20.568Z,19.27
2023-02-11T11:16:13.886Z,19.50
2023-02-11T11:17:46.201Z,18.63
2023-02-11T11:19:25.565Z,23.00
2023-02-11T11:21:01.343Z,21.27
2023-02-11T11:22:33.086Z,19.98
2023-02-11T11:24:05.225Z,20.17
2023-02-11T11:25:41.377Z,20.45
2023-02-11T11:27:23.799Z,19.95
2023-02-11T11:29:01.579Z,19.65
2023-02-11T11:30:41.476Z,20.80
2023-02-11T11:32:20.608Z,20.00
2023-02-11T11:33:56.311Z,19.17
2023-02-11T11:35:33.179Z,17.67
2023-02-11T11:37:33.270Z,19.65
2023-02-11T11:39:20.295Z,18.90
2023-02-11T11:41:18.789Z,20.70
2023-02-11T11:43:25.947Z,19.95
2023-02-11T11:45:25.855Z,17.65
2023-02-11T11:47:20.609Z,19.23
2023-02-11T11:48:58.776Z,19.10
2023-02-11T11:50:47.728Z,21.08
2023-02-11T11:52:46.449Z,18.77
2023-02-11T11:54:19.967Z,17.80
2023-02-11T11:56:09.763Z,19.45
2023-02-11T11:57:41.502Z,19.27
2023-02-11T11:59:16.527Z,19.00
2023-02-11T12:01:05.696Z,20.70
2023-02-11T12:02:54.150Z,19.08
2023-02-11T12:04:59.748Z,19.63
2023-02-11T12:07:12.701Z,17.98
2023-02-11T12:09:12.703Z,16.35
2023-02-11T12:11:15.357Z,16.42
2023-02-11T12:13:08.577Z,16.05
2023-02-11T12:14:59.206Z,17.25
2023-02-11T12:16:51.702Z,18.07
2023-02-11T12:18:38.253Z,18.50
2023-02-11T12:20:40.363Z,19.50
2023-02-11T12:22:19.171Z,17.38
2023-02-11T12:24:16.925Z,19.17
2023-02-11T12:25:48.977Z,17.20
2023-02-11T12:27:26.747Z,19.30
2023-02-11T12:29:01.155Z,17.55
2023-02-11T12:30:49.073Z,18.85
2023-02-11T12:32:33.528Z,17.80
2023-02-11T12:34:30.190Z,19.17
2023-02-11T12:36:27.893Z,16.98
2023-02-11T12:38:11.711Z,17.75
2023-02-11T12:40:02.683Z,19.17
2023-02-11T12:42:09.175Z,18.38
2023-02-11T12:43:44.434Z,17.45
2023-02-11T12:45:55.045Z,19.20
2023-02-11T12:47:42.440Z,17.88
2023-02-11T12:49:31.958Z,18.27
2023-02-11T12:51:25.445Z,19.35
2023-02-11T12:53:35.297Z,19.67
2023-02-11T12:55:23.436Z,19.55
2023-02-11T12:57:26.635Z,20.33
2023-02-11T12:59:02.025Z,21.30
2023-02-11T13:01:00.671Z,21.65
2023-02-11T13:03:06.369Z,20.23
2023-02-11T13:04:44.775Z,19.58
2023-02-11T13:06:23.267Z,20.98
2023-02-11T13:08:09.100Z,19.52
2023-02-11T13:10:22.485Z,20.60
2023-02-11T13:11:57.315Z,18.02
2023-02-11T13:13:35.711Z,20.38
2023-02-11T13:15:13.026Z,20.00
2023-02-11T13:16:47.167Z,18.65
2023-02-11T13:18:37.243Z,21.25
2023-02-11T13:20:43.421Z,19.58
2023-02-11T13:22:26.807Z,18.42
2023-02-11T13:24:05.554Z,19.05
2023-02-11T13:25:51.456Z,20.05
2023-02-11T13:27:34.974Z,18.88
2023-02-11T13:29:20.961Z,19.95
2023-02-11T13:31:02.292Z,18.63
2023-02-11T13:34:52.901Z,14.90
2023-02-11T13:36:27.700Z,17.10
2023-02-11T13:38:04.778Z,20.27
2023-02-11T13:39:36.539Z,20.13
2023-02-11T13:41:17.381Z,20.02
2023-02-11T13:42:53.542Z,19.33
2023-02-11T13:44:27.668Z,21.27
2023-02-11T13:46:06.040Z,21.05
2023-02-11T13:47:38.508Z,20.95
2023-02-11T13:49:20.048Z,20.83
2023-02-11T13:50:58.512Z,20.90
2023-02-11T13:52:37.527Z,20.88
2023-02-11T13:54:19.654Z,21.02
2023-02-11T13:56:04.217Z,21.67
2023-02-11T13:57:37.974Z,20.00
2023-02-11T13:59:24.876Z,20.95
2023-02-11T14:00:56.668Z,19.92
2023-02-11T14:02:55.203Z,20.67
2023-02-11T14:04:48.724Z,19.27
2023-02-11T14:07:05.061Z,19.55
2023-02-11T14:08:55.409Z,18.63
2023-02-11T14:10:42.438Z,18.83
2023-02-11T14:12:33.166Z,18.63
2023-02-11T14:14:28.611Z,18.57
2023-02-11T14:16:37.062Z,20.00
2023-02-11T14:18:38.425Z,18.77
2023-02-11T14:20:36.697Z,18.77
2023-02-11T14:22:31.845Z,18.77
2023-02-11T14:24:05.036Z,19.15
2023-02-11T14:25:39.372Z,19.95
2023-02-11T14:27:27.818Z,19.45
2023-02-11T14:29:15.682Z,20.23
2023-02-11T14:31:08.685Z,19.25
2023-02-11T14:33:07.485Z,20.55
2023-02-11T14:35:07.996Z,18.67
2023-02-11T14:36:46.350Z,17.60
2023-02-11T14:38:25.677Z,20.13
2023-02-11T14:40:13.921Z,19.88
2023-02-11T14:41:48.872Z,20.15
2023-02-11T14:43:26.762Z,19.98
2023-02-11T14:45:06.475Z,20.40
2023-02-11T14:46:38.365Z,20.77
2023-02-11T14:48:18.890Z,20.60
2023-02-11T14:49:50.805Z,19.83
2023-02-11T14:51:31.965Z,20.83
2023-02-11T14:53:06.318Z,19.30
2023-02-11T14:54:38.658Z,20.25
2023-02-11T14:56:26.575Z,20.65
2023-02-11T14:58:20.199Z,19.40
2023-02-11T14:59:59.235Z,19.83
2023-02-11T15:01:38.094Z,20.10
2023-02-11T15:03:25.211Z,19.77
2023-02-11T15:05:34.028Z,19.77
2023-02-11T15:07:08.366Z,19.02
2023-02-11T15:08:45.899Z,19.85
2023-02-11T15:10:44.713Z,19.85
2023-02-11T15:12:27.586Z,19.08
2023-02-11T15:14:07.391Z,21.33
2023-02-11T15:15:40.849Z,20.35
2023-02-11T15:17:17.110Z,21.10
2023-02-11T15:18:53.238Z,20.40
2023-02-11T15:20:28.418Z,20.77
2023-02-11T15:22:00.147Z,19.60
2023-02-11T15:23:32.090Z,19.67
2023-02-11T15:25:11.452Z,20.83
2023-02-11T15:26:43.217Z,19.38
2023-02-11T15:28:22.841Z,19.35
2023-02-11T15:29:54.720Z,19.67
2023-02-11T15:31:28.531Z,19.73
2023-02-11T15:33:03.358Z,18.88
2023-02-11T15:34:35.647Z,19.48
2023-02-11T15:36:11.523Z,19.60
2023-02-11T15:37:45.211Z,18.75
2023-02-11T15:39:18.284Z,18.70
2023-02-11T15:40:58.540Z,18.90
2023-02-11T15:42:40.818Z,18.80
2023-02-11T15:44:30.636Z,17.65
2023-02-11T15:46:03.123Z,19.27
2023-02-11T15:47:35.783Z,19.63
2023-02-11T15:49:19.283Z,19.25
2023-02-11T15:50:57.051Z,18.27
2023-02-11T15:52:29.425Z,18.10
2023-02-11T15:54:05.937Z,17.70
2023-02-11T15:55:41.433Z,18.20
2023-02-11T15:57:14.262Z,18.33
2023-02-11T15:58:49.525Z,17.58
2023-02-11T16:00:24.818Z,17.23
2023-02-11T16:01:59.008Z,17.83
2023-02-11T16:03:33.056Z,17.23
2023-02-11T16:05:08.534Z,17.95
2023-02-11T16:06:42.390Z,19.05
2023-02-11T16:08:32.969Z,17.92
2023-02-11T16:10:05.042Z,17.67
2023-02-11T16:11:46.088Z,18.30
2023-02-11T16:13:19.679Z,18.27
2023-02-11T16:14:51.412Z,17.80
2023-02-11T16:16:33.460Z,19.13
2023-02-11T16:18:37.756Z,17.63
2023-02-11T16:20:20.088Z,17.65
2023-02-11T16:21:53.570Z,17.73
2023-02-11T16:23:53.292Z,17.75
2023-02-11T16:25:25.033Z,17.52
2023-02-11T16:27:07.174Z,17.92
2023-02-11T16:28:39.878Z,16.60
2023-02-11T16:30:35.110Z,17.27
2023-02-11T16:32:15.486Z,16.60
2023-02-11T16:33:47.382Z,11.80
2023-02-11T16:35:19.090Z,17.77
2023-02-11T16:36:52.580Z,18.13
2023-02-11T16:38:24.349Z,16.52
2023-02-11T16:39:58.328Z,18.35
2023-02-11T16:41:30.148Z,15.95
2023-02-11T16:43:01.877Z,17.40
2023-02-11T16:44:34.550Z,18.15
2023-02-11T16:46:06.416Z,17.15
2023-02-11T16:47:42.053Z,17.60
2023-02-11T16:49:21.664Z,18.60
2023-02-11T16:50:53.792Z,17.27
2023-02-11T16:52:25.774Z,17.48
2023-02-11T16:53:57.520Z,17.58
2023-02-11T16:55:29.459Z,16.70
2023-02-11T16:57:05.510Z,17.90
2023-02-11T16:58:37.209Z,18.50
2023-02-11T17:00:10.424Z,18.50
2023-02-11T17:01:44.081Z,17.55
2023-02-11T17:03:23.089Z,17.08
2023-02-11T17:04:58.029Z,16.65
2023-02-11T17:06:29.967Z,17.77
2023-02-11T17:08:02.523Z,18.45
2023-02-11T17:09:34.462Z,18.02
2023-02-11T17:11:06.226Z,16.23
2023-02-11T17:12:37.914Z,16.63
2023-02-11T17:14:09.902Z,17.90
2023-02-11T17:15:41.673Z,17.88
2023-02-11T17:17:14.016Z,19.05
2023-02-11T17:18:46.124Z,17.45
2023-02-11T17:20:17.954Z,17.30
2023-02-11T17:21:51.989Z,17.73
2023-02-11T17:23:23.751Z,17.20
2023-02-11T17:24:58.857Z,17.85
2023-02-11T17:26:30.607Z,16.55
2023-02-11T17:28:02.470Z,16.40
2023-02-11T17:29:34.264Z,17.63
2023-02-11T17:31:09.959Z,16.58
2023-02-11T17:32:41.716Z,17.73
2023-02-11T17:34:13.924Z,17.25
2023-02-11T17:35:46.093Z,18.30
2023-02-11T17:37:17.836Z,18.23
2023-02-11T17:38:49.653Z,16.98
2023-02-11T17:40:21.585Z,17.98
2023-02-11T17:41:53.347Z,16.67
2023-02-11T17:43:25.223Z,17.85
2023-02-11T17:44:56.980Z,17.88
2023-02-11T17:46:29.047Z,17.25
2023-02-11T17:48:00.840Z,17.52
2023-02-11T17:49:32.593Z,17.55
2023-02-11T17:51:05.768Z,17.25
2023-02-11T17:52:37.971Z,18.40
2023-02-11T17:54:18.615Z,17.02
2023-02-11T17:55:50.696Z,17.70
2023-02-11T17:57:23.009Z,18.30
2023-02-11T17:58:54.716Z,17.95
2023-02-11T18:00:28.400Z,18.02
2023-02-11T18:02:00.101Z,17.30
2023-02-11T18:03:33.129Z,18.42
2023-02-11T18:05:05.411Z,18.20
2023-02-11T18:06:37.464Z,18.30
2023-02-11T18:08:09.290Z,18.23
2023-02-11T18:09:41.383Z,19.70
2023-02-11T18:11:15.180Z,17.80
2023-02-11T18:12:47.153Z,18.23
2023-02-11T18:14:20.441Z,17.98
2023-02-11T18:15:52.511Z,17.38
2023-02-11T18:17:24.427Z,18.30
2023-02-11T18:18:58.291Z,18.40
2023-02-11T18:20:29.974Z,18.33
2023-02-11T18:22:02.818Z,17.52
2023-02-11T18:23:35.291Z,18.30
2023-02-11T18:25:08.541Z,17.88
2023-02-11T18:26:40.351Z,17.70
2023-02-11T18:28:12.112Z,16.85
2023-02-11T18:29:43.853Z,17.33
2023-02-11T18:31:17.564Z,18.67
2023-02-11T18:32:54.008Z,17.52
2023-02-11T18:34:26.261Z,17.52
2023-02-11T18:36:01.393Z,19.40
2023-02-11T18:37:34.043Z,17.67
2023-02-11T18:39:06.348Z,18.08
2023-02-11T18:40:41.023Z,17.98
2023-02-11T18:42:12.860Z,19.05
2023-02-11T18:43:45.043Z,18.83
2023-02-11T18:45:16.781Z,17.80
2023-02-11T18:46:48.594Z,20.33
2023-02-11T18:48:20.345Z,20.80
2023-02-11T18:49:52.084Z,19.05
2023-02-11T18:51:24.647Z,19.88
2023-02-11T18:52:56.382Z,18.33
2023-02-11T18:54:28.140Z,19.17
2023-02-11T18:55:59.869Z,19.30
2023-02-11T18:57:32.171Z,17.60
2023-02-11T18:59:04.057Z,18.77
2023-02-11T19:00:38.488Z,18.05
2023-02-11T19:02:11.171Z,18.15
2023-02-11T19:03:43.456Z,16.67
2023-02-11T19:05:15.807Z,18.60
2023-02-11T19:06:49.560Z,19.08
2023-02-11T19:08:21.284Z,20.25
2023-02-11T19:09:53.136Z,20.58
2023-02-11T19:11:43.926Z,20.55
2023-02-11T19:13:15.865Z,17.45
2023-02-11T19:14:47.589Z,19.40
2023-02-11T19:16:20.020Z,19.92
2023-02-11T19:17:51.920Z,21.55
2023-02-11T19:19:25.858Z,21.40
2023-02-11T19:20:57.590Z,19.83
2023-02-11T19:22:29.291Z,19.80
2023-02-11T19:24:02.362Z,21.65
2023-02-11T19:25:34.666Z,20.27
2023-02-11T19:27:06.480Z,20.13
2023-02-11T19:28:38.338Z,20.10
2023-02-11T19:30:11.056Z,20.30
2023-02-11T19:31:43.602Z,20.42
2023-02-11T19:33:15.403Z,21.42
2023-02-11T19:34:47.382Z,21.90
2023-02-11T19:36:21.352Z,20.13
2023-02-11T19:37:53.293Z,20.20
2023-02-11T19:39:26.063Z,20.50
2023-02-11T19:40:58.506Z,20.58
2023-02-11T19:42:30.228Z,20.38
2023-02-11T19:44:02.809Z,20.20
2023-02-11T19:45:37.552Z,20.67
2023-02-11T19:47:10.579Z,22.75
2023-02-11T19:48:42.309Z,22.02
2023-02-11T19:50:14.085Z,22.10
2023-02-11T19:51:45.832Z,21.60
2023-02-11T19:53:17.869Z,24.77
2023-02-11T19:54:49.646Z,23.35
2023-02-11T19:56:22.447Z,21.20
2023-02-11T19:57:54.159Z,21.85
2023-02-11T19:59:26.409Z,21.17
2023-02-11T20:01:05.921Z,21.10
2023-02-11T20:02:39.438Z,20.70
2023-02-11T20:04:11.186Z,19.92
2023-02-11T20:05:47.095Z,20.55
2023-02-11T20:07:18.817Z,21.30
2023-02-11T20:09:15.736Z,23.60
2023-02-11T20:10:47.761Z,19.75
2023-02-11T20:12:19.525Z,19.58
2023-02-11T20:14:02.042Z,21.25
2023-02-11T20:15:35.682Z,19.13
2023-02-11T20:17:07.409Z,20.83
2023-02-11T20:18:40.164Z,19.55
2023-02-11T20:20:12.969Z,22.45
2023-02-11T20:21:47.058Z,21.55
2023-02-11T20:23:19.156Z,22.05
2023-02-11T20:24:51.210Z,21.08
2023-02-11T20:26:31.386Z,20.67
2023-02-11T20:28:03.205Z,20.83
2023-02-11T20:29:35.081Z,20.23
2023-02-11T20:31:07.409Z,18.50
2023-02-11T20:32:39.235Z,21.52
2023-02-11T20:34:12.358Z,20.55
2023-02-11T20:35:44.078Z,20.05
2023-02-11T20:37:15.884Z,20.48
2023-02-11T20:38:48.397Z,19.25
2023-02-11T20:40:20.528Z,20.80
2023-02-11T20:41:53.942Z,21.05
2023-02-11T20:43:25.690Z,21.48
2023-02-11T20:44:57.452Z,20.95
2023-02-11T20:46:33.109Z,20.33
2023-02-11T20:48:04.890Z,20.17
2023-02-11T20:49:36.620Z,20.38
2023-02-11T20:51:12.080Z,20.50
2023-02-11T20:52:43.795Z,20.25
2023-02-11T20:54:19.082Z,21.90
2023-02-11T20:55:51.175Z,22.00
2023-02-11T20:57:25.672Z,22.30
2023-02-11T20:58:59.410Z,22.35
2023-02-11T21:00:31.245Z,21.05
2023-02-11T21:02:03.006Z,21.02